createdAt,value
2019-01-08T00:00:39.986Z,101520.44
2019-01-08T00:03:08.355Z,101517.38
2019-01-08T00:05:36.727Z,101511.50
2019-01-08T00:08:04.989Z,101513.45
2019-01-08T00:10:33.399Z,101500.92
2019-01-08T00:13:01.709Z,101509.19
2019-01-08T00:15:30.022Z,101502.76
2019-01-08T00:17:58.298Z,101495.92
2019-01-08T00:20:26.763Z,101493.09
2019-01-08T00:22:55.031Z,101493.22
2019-01-08T00:25:23.341Z,101495.67
2019-01-08T00:27:51.631Z,101487.28
2019-01-08T00:30:19.926Z,101469.02
2019-01-08T00:32:48.214Z,101479.34
2019-01-08T00:35:16.584Z,101465.74
2019-01-08T00:37:44.918Z,101452.50
2019-01-08T00:40:13.251Z,101455.07
2019-01-08T00:42:41.547Z,101453.72
2019-01-08T00:45:09.863Z,101460.68
2019-01-08T00:47:38.217Z,101451.62
2019-01-08T00:50:06.594Z,101453.80
2019-01-08T00:52:34.952Z,101454.51
2019-01-08T00:55:03.240Z,101458.06
2019-01-08T00:57:31.647Z,101449.08
2019-01-08T00:59:59.966Z,101445.39
2019-01-08T01:02:28.298Z,101441.79
2019-01-08T01:04:56.663Z,101438.95
2019-01-08T01:07:24.986Z,101435.55
2019-01-08T01:09:53.351Z,101426.47
2019-01-08T01:12:21.690Z,101432.67
2019-01-08T01:14:50.010Z,101424.09
2019-01-08T01:17:18.446Z,101419.77
2019-01-08T01:19:46.920Z,101413.54
2019-01-08T01:22:15.183Z,101408.28
2019-01-08T01:24:43.569Z,101414.40
2019-01-08T01:27:14.802Z,101412.88
2019-01-08T01:29:43.215Z,101405.77
2019-01-08T01:32:11.594Z,101400.84
2019-01-08T01:34:39.847Z,101391.50
2019-01-08T01:37:08.187Z,101396.47
2019-01-08T01:39:36.479Z,101394.21
2019-01-08T01:42:04.762Z,101391.12
2019-01-08T01:44:33.053Z,101383.80
2019-01-08T01:47:01.324Z,101389.50
2019-01-08T01:49:29.655Z,101387.73
2019-01-08T01:51:57.964Z,101382.95
2019-01-08T01:54:26.291Z,101380.47
2019-01-08T01:56:54.629Z,101377.27
2019-01-08T01:59:22.955Z,101380.75
2019-01-08T02:01:51.216Z,101377.81
2019-01-08T02:04:19.747Z,101375.00
2019-01-08T02:06:48.146Z,101366.25
2019-01-08T02:09:16.540Z,101362.66
2019-01-08T02:11:44.884Z,101363.41
2019-01-08T02:14:13.174Z,101368.94
2019-01-08T02:16:41.536Z,101359.48
2019-01-08T02:19:09.797Z,101352.05
2019-01-08T02:21:38.209Z,101354.19
2019-01-08T02:24:06.524Z,101352.13
2019-01-08T02:26:34.866Z,101336.47
2019-01-08T02:29:03.169Z,101336.16
2019-01-08T02:31:31.404Z,101332.71
2019-01-08T02:33:59.762Z,101336.23
2019-01-08T02:36:28.052Z,101332.20
2019-01-08T02:38:56.368Z,101304.03
2019-01-08T02:41:24.907Z,101294.86
2019-01-08T02:43:53.707Z,101304.77
2019-01-08T02:46:21.965Z,101315.20
2019-01-08T02:48:50.338Z,101322.83
2019-01-08T02:51:18.630Z,101329.32
2019-01-08T02:53:47.198Z,101311.45
2019-01-08T02:56:15.586Z,101319.69
2019-01-08T02:58:43.929Z,101301.97
2019-01-08T03:01:12.457Z,101296.52
2019-01-08T03:03:40.850Z,101281.70
2019-01-08T03:06:09.103Z,101281.86
2019-01-08T03:08:37.430Z,101270.05
2019-01-08T03:11:05.732Z,101268.98
2019-01-08T03:13:33.985Z,101263.92
2019-01-08T03:16:02.409Z,101261.08
2019-01-08T03:18:30.755Z,101268.91
2019-01-08T03:20:59.158Z,101282.26
2019-01-08T03:23:27.506Z,101301.37
2019-01-08T03:25:55.905Z,101308.33
2019-01-08T03:28:24.258Z,101289.03
2019-01-08T03:30:52.578Z,101273.78
2019-01-08T03:33:20.932Z,101263.06
2019-01-08T03:35:49.301Z,101256.19
2019-01-08T03:38:17.673Z,101247.88
2019-01-08T03:40:46.012Z,101226.20
2019-01-08T03:43:14.375Z,101214.75
2019-01-08T03:45:42.659Z,101227.03
2019-01-08T03:48:11.052Z,101229.31
2019-01-08T03:50:39.453Z,101222.69
2019-01-08T03:53:07.720Z,101163.69
2019-01-08T03:55:36.021Z,101213.98
2019-01-08T03:58:04.422Z,101211.26
2019-01-08T04:00:32.711Z,101198.20
2019-01-08T04:03:01.019Z,101210.39
2019-01-08T04:05:29.483Z,101206.45
2019-01-08T04:07:57.746Z,101192.31
2019-01-08T04:10:28.318Z,101190.09
2019-01-08T04:12:56.651Z,101183.65
2019-01-08T04:15:25.113Z,101185.14
2019-01-08T04:17:53.423Z,101179.57
2019-01-08T04:20:21.676Z,101193.59
2019-01-08T04:22:49.965Z,101176.05
2019-01-08T04:25:18.381Z,101175.30
2019-01-08T04:27:46.768Z,101167.61
2019-01-08T04:30:15.054Z,101168.05
2019-01-08T04:32:43.390Z,101150.79
2019-01-08T04:35:11.859Z,101157.43
2019-01-08T04:37:40.216Z,101163.16
2019-01-08T04:40:08.531Z,101150.77
2019-01-08T04:42:36.921Z,101149.27
2019-01-08T04:45:05.180Z,101138.64
2019-01-08T04:47:33.547Z,101134.34
2019-01-08T04:50:01.933Z,101139.94
2019-01-08T04:52:30.697Z,101130.03
2019-01-08T04:54:58.931Z,101125.09
2019-01-08T04:57:27.316Z,101122.92
2019-01-08T04:59:59.039Z,101118.69
2019-01-08T05:02:25.728Z,101107.79
2019-01-08T05:04:55.024Z,101112.00
2019-01-08T05:07:23.382Z,101103.19
2019-01-08T05:09:51.890Z,101104.22
2019-01-08T05:12:20.494Z,101084.53
2019-01-08T05:14:48.873Z,100875.06
2019-01-08T05:17:17.132Z,101091.05
2019-01-08T05:19:45.500Z,101090.30
2019-01-08T05:22:13.773Z,101102.69
2019-01-08T05:24:42.320Z,101098.73
2019-01-08T05:27:10.659Z,101078.64
2019-01-08T05:29:38.933Z,101076.33
2019-01-08T05:32:07.354Z,101082.02
2019-01-08T05:34:35.618Z,101076.84
2019-01-08T05:37:03.948Z,101081.11
2019-01-08T05:39:56.030Z,101062.90
2019-01-08T05:42:24.777Z,101075.81
2019-01-08T05:44:53.067Z,101077.23
2019-01-08T05:47:21.406Z,101080.43
2019-01-08T05:49:49.960Z,101064.11
2019-01-08T05:52:18.322Z,101067.08
2019-01-08T05:54:46.609Z,101065.07
2019-01-08T05:57:14.905Z,101069.09
2019-01-08T05:59:43.196Z,101085.22
2019-01-08T06:02:11.544Z,101071.98
2019-01-08T06:04:39.945Z,101051.11
2019-01-08T06:07:08.290Z,101058.55
2019-01-08T06:09:36.667Z,101066.09
2019-01-08T06:12:05.007Z,101058.65
2019-01-08T06:14:33.393Z,101061.17
2019-01-08T06:17:01.715Z,101052.91
2019-01-08T06:19:29.979Z,101042.98
2019-01-08T06:21:58.359Z,101031.64
2019-01-08T06:24:26.716Z,101049.48
2019-01-08T06:26:54.980Z,101048.38
2019-01-08T06:29:23.446Z,101042.01
2019-01-08T06:31:51.714Z,101046.28
2019-01-08T06:34:20.093Z,101047.93
2019-01-08T06:36:48.641Z,101047.03
2019-01-08T06:39:16.974Z,101043.59
2019-01-08T06:41:45.440Z,101026.64
2019-01-08T06:44:13.733Z,101011.28
2019-01-08T06:46:43.139Z,101027.98
2019-01-08T06:49:11.685Z,101019.41
2019-01-08T06:51:40.037Z,101022.03
2019-01-08T06:54:08.373Z,101032.39
2019-01-08T06:56:36.709Z,101026.78
2019-01-08T06:59:05.126Z,101020.82
2019-01-08T07:01:33.708Z,101013.28
2019-01-08T07:04:02.052Z,101029.19
2019-01-08T07:06:30.335Z,101018.52
2019-01-08T07:08:58.622Z,101018.52
2019-01-08T07:11:27.016Z,101010.97
2019-01-08T07:13:55.391Z,100997.47
2019-01-08T07:16:23.711Z,100996.44
2019-01-08T07:18:52.039Z,101003.36
2019-01-08T07:21:20.445Z,100981.35
2019-01-08T07:23:48.826Z,100995.30
2019-01-08T07:26:17.149Z,100997.33
2019-01-08T07:28:45.400Z,100845.64
2019-01-08T07:31:13.823Z,101000.02
2019-01-08T07:33:42.222Z,100995.50
2019-01-08T07:36:10.518Z,101004.83
2019-01-08T07:38:38.785Z,100990.73
2019-01-08T07:41:07.100Z,100994.52
2019-01-08T07:43:35.478Z,100982.21
2019-01-08T07:46:03.986Z,101003.45
2019-01-08T07:48:32.261Z,100979.01
2019-01-08T07:51:00.614Z,100986.75
2019-01-08T07:53:28.946Z,100985.02
2019-01-08T07:55:57.338Z,100984.83
2019-01-08T07:58:25.713Z,100978.77
2019-01-08T08:00:54.077Z,100972.66
2019-01-08T08:03:22.573Z,100978.92
2019-01-08T08:05:50.952Z,100969.52
2019-01-08T08:08:19.221Z,100970.28
2019-01-08T08:10:47.557Z,100969.52
2019-01-08T08:13:15.913Z,100960.44
2019-01-08T08:15:44.211Z,100965.87
2019-01-08T08:18:12.481Z,100968.36
2019-01-08T08:20:40.879Z,100961.78
2019-01-08T08:23:09.161Z,100970.43
2019-01-08T08:25:37.434Z,100959.41
2019-01-08T08:28:06.067Z,100961.78
2019-01-08T08:30:34.368Z,100965.30
2019-01-08T08:33:02.632Z,100964.27
2019-01-08T08:35:30.926Z,100975.16
2019-01-08T08:37:59.226Z,100948.75
2019-01-08T08:40:27.585Z,100963.00
2019-01-08T08:42:55.874Z,100971.95
2019-01-08T08:45:24.167Z,100951.95
2019-01-08T08:47:52.508Z,100950.77
2019-01-08T08:50:20.799Z,100968.81
2019-01-08T08:52:49.092Z,100965.16
2019-01-08T08:55:17.564Z,100975.15
2019-01-08T08:57:45.944Z,100956.33
2019-01-08T09:00:14.308Z,100955.36
2019-01-08T09:02:42.602Z,100961.05
2019-01-08T09:05:11.071Z,100960.59
2019-01-08T09:07:39.373Z,100950.27
2019-01-08T09:10:07.773Z,100957.42
2019-01-08T09:12:36.156Z,100940.59
2019-01-08T09:15:04.895Z,100958.63
2019-01-08T09:17:33.255Z,100948.33
2019-01-08T09:20:01.561Z,100884.84
2019-01-08T09:22:30.040Z,100953.06
2019-01-08T09:24:58.327Z,100963.61
2019-01-08T09:27:26.659Z,100956.13
2019-01-08T09:29:54.969Z,100944.02
2019-01-08T09:32:23.280Z,100964.77
2019-01-08T09:34:51.551Z,100970.58
2019-01-08T09:37:20.041Z,100974.70
2019-01-08T09:39:48.411Z,100977.61
2019-01-08T09:42:16.677Z,100979.33
2019-01-08T09:44:45.012Z,100976.48
2019-01-08T09:47:13.321Z,100992.68
2019-01-08T09:49:41.775Z,100919.32
2019-01-08T09:52:10.052Z,100982.99
2019-01-08T09:54:38.424Z,100980.67
2019-01-08T09:57:06.924Z,100980.52
2019-01-08T09:59:35.599Z,100986.41
2019-01-08T10:02:04.852Z,100994.37
2019-01-08T10:04:33.143Z,100989.08
2019-01-08T10:07:01.517Z,100990.36
2019-01-08T10:09:29.824Z,101006.13
2019-01-08T10:11:58.204Z,101001.88
2019-01-08T10:14:26.610Z,101005.78
2019-01-08T10:16:54.938Z,101011.22
2019-01-08T10:19:23.213Z,101012.81
2019-01-08T10:21:52.418Z,100994.14
2019-01-08T10:24:20.691Z,101020.96
2019-01-08T10:26:48.986Z,101023.21
2019-01-08T10:29:17.489Z,101023.67
2019-01-08T10:31:45.756Z,101028.73
2019-01-08T10:34:14.032Z,101029.39
2019-01-08T10:36:42.333Z,101018.11
2019-01-08T10:39:10.599Z,101036.33
2019-01-08T10:41:38.969Z,101043.58
2019-01-08T10:44:07.328Z,101030.81
2019-01-08T10:46:37.522Z,101025.64
2019-01-08T10:49:05.710Z,101033.71
2019-01-08T10:51:34.098Z,101042.21
2019-01-08T10:54:02.385Z,101012.23
2019-01-08T10:56:30.741Z,101029.12
2019-01-08T10:59:07.380Z,101030.72
2019-01-08T11:01:29.066Z,101021.36
2019-01-08T11:03:57.341Z,101020.86
2019-01-08T11:06:25.748Z,101008.59
2019-01-08T11:08:54.137Z,101020.30
2019-01-08T11:11:22.604Z,101008.77
2019-01-08T11:13:51.009Z,101024.52
2019-01-08T11:16:19.283Z,101035.18
2019-01-08T11:18:47.714Z,101053.72
2019-01-08T11:21:16.084Z,101032.88
2019-01-08T11:23:44.427Z,101035.66
2019-01-08T11:26:12.773Z,101032.08
2019-01-08T11:28:43.121Z,101037.70
2019-01-08T11:31:11.243Z,101033.06
2019-01-08T11:33:39.572Z,101026.86
2019-01-08T11:36:08.020Z,101036.45
2019-01-08T11:38:36.370Z,101035.67
2019-01-08T11:41:06.351Z,101032.89
2019-01-08T11:43:34.762Z,101026.74
2019-01-08T11:46:03.285Z,101011.48
2019-01-08T11:48:31.674Z,101002.68
2019-01-08T11:51:00.156Z,101018.39
2019-01-08T11:53:28.483Z,101037.70
2019-01-08T11:55:56.770Z,101052.31
2019-01-08T11:58:25.068Z,101052.91
2019-01-08T12:00:53.494Z,101046.70
2019-01-08T12:03:21.830Z,101038.84
2019-01-08T12:05:50.108Z,101023.98
2019-01-08T12:08:18.480Z,101024.45
2019-01-08T12:10:46.901Z,101024.08
2019-01-08T12:13:15.255Z,101013.36
2019-01-08T12:15:43.722Z,101014.05
2019-01-08T12:18:12.106Z,101027.08
2019-01-08T12:20:40.391Z,101021.84
2019-01-08T12:23:08.737Z,101026.98
2019-01-08T12:25:37.005Z,101034.25
2019-01-08T12:28:05.386Z,101028.89
2019-01-08T12:30:33.722Z,101029.95
2019-01-08T12:33:02.185Z,101023.13
2019-01-08T12:35:30.593Z,101012.84
2019-01-08T12:37:58.849Z,101006.48
2019-01-08T12:40:27.162Z,101002.82
2019-01-08T12:42:55.523Z,101005.04
2019-01-08T12:45:23.967Z,101019.85
2019-01-08T12:47:52.240Z,101021.64
2019-01-08T12:50:20.628Z,100996.23
2019-01-08T12:52:48.971Z,101001.52
2019-01-08T12:55:17.374Z,101010.66
2019-01-08T12:57:45.792Z,101036.16
2019-01-08T13:00:14.449Z,101051.19
2019-01-08T13:02:42.817Z,101080.08
2019-01-08T13:05:11.172Z,101061.91
2019-01-08T13:07:39.747Z,101046.31
2019-01-08T13:10:09.116Z,101049.07
2019-01-08T13:12:37.778Z,101021.49
2019-01-08T13:15:07.217Z,101034.38
2019-01-08T13:17:37.847Z,101039.91
2019-01-08T13:20:08.580Z,101023.73
2019-01-08T13:22:37.464Z,101021.65
2019-01-08T13:25:06.586Z,101012.63
2019-01-08T13:27:35.164Z,101015.90
2019-01-08T13:30:03.656Z,101006.11
2019-01-08T13:32:32.868Z,101008.45
2019-01-08T13:35:01.195Z,101042.56
2019-01-08T13:37:29.671Z,101044.48
2019-01-08T13:39:57.934Z,101064.69
2019-01-08T13:42:26.250Z,101063.33
2019-01-08T13:44:54.620Z,101045.41
2019-01-08T13:47:22.994Z,101045.98
2019-01-08T13:49:51.558Z,101066.74
2019-01-08T13:52:19.893Z,101063.27
2019-01-08T13:54:48.195Z,101045.91
2019-01-08T13:57:16.537Z,101057.17
2019-01-08T13:59:45.008Z,101040.39
2019-01-08T14:02:14.873Z,101045.25
2019-01-08T14:04:43.634Z,101034.05
2019-01-08T14:07:13.207Z,101041.28
2019-01-08T14:09:42.826Z,100881.09
2019-01-08T14:12:12.236Z,101045.82
2019-01-08T14:14:41.115Z,101047.47
2019-01-08T14:17:09.815Z,101052.70
2019-01-08T14:19:38.142Z,101034.58
2019-01-08T14:22:06.589Z,101049.31
2019-01-08T14:24:35.437Z,101059.63
2019-01-08T14:27:11.683Z,101055.09
2019-01-08T14:29:34.343Z,101049.27
2019-01-08T14:32:04.019Z,101045.09
2019-01-08T14:34:33.592Z,101046.78
2019-01-08T14:37:02.060Z,101055.47
2019-01-08T14:39:30.342Z,101059.11
2019-01-08T14:41:58.604Z,100879.83
2019-01-08T14:44:26.973Z,101057.02
2019-01-08T14:46:55.363Z,101057.26
2019-01-08T14:49:23.736Z,101054.20
2019-01-08T14:51:52.009Z,101047.55
2019-01-08T14:54:20.355Z,101057.79
2019-01-08T14:56:48.827Z,101056.00
2019-01-08T14:59:17.140Z,101061.30
2019-01-08T15:01:45.555Z,101063.38
2019-01-08T15:04:13.966Z,101071.28
2019-01-08T15:06:42.314Z,101062.69
2019-01-08T15:09:10.619Z,101063.71
2019-01-08T15:11:39.005Z,101060.70
2019-01-08T15:14:07.340Z,101080.68
2019-01-08T15:16:35.634Z,101070.53
2019-01-08T15:19:04.005Z,101071.02
2019-01-08T15:21:32.324Z,101088.98
2019-01-08T15:24:00.951Z,101085.33
2019-01-08T15:26:29.925Z,101082.25
2019-01-08T15:28:59.088Z,101087.41
2019-01-08T15:31:27.426Z,101089.40
2019-01-08T15:33:58.106Z,101109.72
2019-01-08T15:36:26.592Z,101108.33
2019-01-08T15:38:57.789Z,101094.83
2019-01-08T15:41:26.712Z,101099.31
2019-01-08T15:43:55.333Z,101106.14
2019-01-08T15:46:23.699Z,101106.22
2019-01-08T15:48:52.065Z,101099.50
2019-01-08T15:51:20.459Z,101096.06
2019-01-08T15:53:48.765Z,101085.64
2019-01-08T15:56:18.739Z,101103.30
2019-01-08T15:58:47.281Z,101107.20
2019-01-08T16:01:15.643Z,101106.09
2019-01-08T16:03:44.657Z,101125.84
2019-01-08T16:06:14.135Z,101113.30
2019-01-08T16:08:42.438Z,101105.56
2019-01-08T16:11:11.912Z,101104.63
2019-01-08T16:13:42.499Z,101088.80
2019-01-08T16:16:17.157Z,101087.54
2019-01-08T16:18:47.074Z,101095.52
2019-01-08T16:21:16.274Z,101100.37
2019-01-08T16:23:44.575Z,101137.11
2019-01-08T16:26:13.659Z,101131.95
2019-01-08T16:28:50.047Z,101138.84
2019-01-08T16:31:18.411Z,101141.81
2019-01-08T16:33:46.675Z,101138.84
2019-01-08T16:36:15.077Z,101146.28
2019-01-08T16:38:43.554Z,101163.22
2019-01-08T16:41:11.857Z,101158.28
2019-01-08T16:43:40.235Z,101161.08
2019-01-08T16:46:08.715Z,101149.70
2019-01-08T16:48:37.078Z,101160.14
2019-01-08T16:51:06.117Z,101171.48
2019-01-08T16:53:41.242Z,101149.05
2019-01-08T16:56:04.659Z,101167.10
2019-01-08T16:58:33.011Z,101155.78
2019-01-08T17:01:18.811Z,101151.92
2019-01-08T17:03:47.604Z,101153.42
2019-01-08T17:06:18.107Z,101160.64
2019-01-08T17:08:47.098Z,101154.97
2019-01-08T17:11:15.432Z,101163.51
2019-01-08T17:13:44.926Z,101164.49
2019-01-08T17:16:13.307Z,101167.42
2019-01-08T17:18:43.151Z,101161.53
2019-01-08T17:21:11.562Z,101161.73
2019-01-08T17:23:40.902Z,101170.88
2019-01-08T17:26:09.421Z,101169.64
2019-01-08T17:28:37.874Z,101162.73
2019-01-08T17:31:06.382Z,101160.91
2019-01-08T17:33:34.684Z,101161.73
2019-01-08T17:36:03.265Z,101168.87
2019-01-08T17:38:31.525Z,101166.47
2019-01-08T17:40:59.927Z,101164.10
2019-01-08T17:43:33.456Z,101170.83
2019-01-08T17:46:00.945Z,101178.53
2019-01-08T17:48:29.706Z,101175.09
2019-01-08T17:50:58.626Z,101182.72
2019-01-08T17:53:30.990Z,101191.67
2019-01-08T17:56:04.666Z,101197.80
2019-01-08T17:58:36.601Z,101174.49
2019-01-08T18:01:08.434Z,101181.11
2019-01-08T18:03:42.505Z,101181.11
2019-01-08T18:06:06.871Z,101193.78
2019-01-08T18:08:35.716Z,101191.94
2019-01-08T18:11:05.329Z,101189.49
2019-01-08T18:13:34.489Z,101203.39
2019-01-08T18:16:02.908Z,101196.80
2019-01-08T18:18:31.321Z,101198.36
2019-01-08T18:20:59.826Z,101208.45
2019-01-08T18:23:28.121Z,101206.09
2019-01-08T18:25:56.642Z,101204.15
2019-01-08T18:28:25.222Z,101215.81
2019-01-08T18:30:54.087Z,101213.31
2019-01-08T18:33:23.269Z,101215.88
2019-01-08T18:35:52.269Z,101206.09
2019-01-08T18:38:21.034Z,101218.07
2019-01-08T18:40:49.466Z,101223.22
2019-01-08T18:43:17.849Z,101230.56
2019-01-08T18:45:46.164Z,101216.32
2019-01-08T18:48:14.494Z,101216.09
2019-01-08T18:50:45.592Z,101228.48
2019-01-08T18:53:14.140Z,101221.70
2019-01-08T18:55:43.080Z,101227.06
2019-01-08T18:58:11.871Z,101228.51
2019-01-08T19:00:40.253Z,101226.80
2019-01-08T19:03:08.827Z,101228.97
2019-01-08T19:05:37.189Z,101229.67
2019-01-08T19:08:06.235Z,101237.00
2019-01-08T19:10:36.111Z,101247.82
2019-01-08T19:13:04.452Z,101234.80
2019-01-08T19:15:33.099Z,101230.58
2019-01-08T19:18:01.990Z,101237.69
2019-01-08T19:20:30.434Z,101233.67
2019-01-08T19:23:00.039Z,101246.67
2019-01-08T19:25:28.481Z,101237.80
2019-01-08T19:27:58.219Z,101237.52
2019-01-08T19:30:28.235Z,101254.20
2019-01-08T19:32:57.256Z,101255.73
2019-01-08T19:35:31.482Z,101259.14
2019-01-08T19:37:56.109Z,101260.06
2019-01-08T19:40:24.539Z,101258.63
2019-01-08T19:42:54.577Z,101270.56
2019-01-08T19:45:23.011Z,101291.12
2019-01-08T19:47:51.569Z,101301.20
2019-01-08T19:50:20.190Z,101275.98
2019-01-08T19:52:48.870Z,101271.05
2019-01-08T19:55:17.371Z,101271.03
2019-01-08T19:57:45.838Z,101275.80
2019-01-08T20:00:14.181Z,101277.96
2019-01-08T20:02:42.534Z,101274.67
2019-01-08T20:05:15.856Z,101272.23
2019-01-08T20:07:44.921Z,101271.49
2019-01-08T20:10:13.243Z,101263.27
2019-01-08T20:12:42.093Z,101268.73
2019-01-08T20:15:10.640Z,101270.98
2019-01-08T20:17:39.884Z,101268.49
2019-01-08T20:20:09.423Z,101275.10
2019-01-08T20:22:38.191Z,101268.61
2019-01-08T20:25:07.841Z,101269.15
2019-01-08T20:27:36.434Z,101275.93
2019-01-08T20:30:07.598Z,101267.06
2019-01-08T20:32:36.007Z,101267.06
2019-01-08T20:35:04.373Z,101266.75
2019-01-08T20:37:32.855Z,101258.94
2019-01-08T20:40:01.224Z,101262.96
2019-01-08T20:42:29.568Z,101265.33
2019-01-08T20:44:57.966Z,101266.17
2019-01-08T20:47:26.912Z,101281.30
2019-01-08T20:49:55.708Z,101282.88
2019-01-08T20:52:24.201Z,101288.01
2019-01-08T20:54:53.123Z,101269.07
2019-01-08T20:57:21.541Z,101273.78
2019-01-08T20:59:49.870Z,101281.22
2019-01-08T21:02:19.563Z,101284.63
2019-01-08T21:04:47.982Z,101282.86
2019-01-08T21:07:17.907Z,101283.88
2019-01-08T21:09:46.558Z,101282.13
2019-01-08T21:12:14.821Z,101285.94
2019-01-08T21:14:43.178Z,101287.48
2019-01-08T21:17:11.540Z,101279.23
2019-01-08T21:19:39.806Z,101074.70
2019-01-08T21:22:10.324Z,101275.42
2019-01-08T21:24:38.735Z,101287.45
2019-01-08T21:27:12.981Z,101285.61
2019-01-08T21:29:41.603Z,101294.87
2019-01-08T21:32:10.222Z,101293.23
2019-01-08T21:34:44.208Z,101281.69
2019-01-08T21:37:08.896Z,101300.02
2019-01-08T21:39:37.279Z,101309.69
2019-01-08T21:42:06.784Z,101299.91
2019-01-08T21:44:35.434Z,101304.25
2019-01-08T21:47:05.956Z,101306.81
2019-01-08T21:49:34.304Z,101304.37
2019-01-08T21:52:02.669Z,101301.15
2019-01-08T21:54:31.070Z,101303.03
2019-01-08T21:56:59.638Z,101305.28
2019-01-08T21:59:27.964Z,101302.37
2019-01-08T22:01:56.443Z,101294.02
2019-01-08T22:04:26.786Z,101298.36
2019-01-08T22:06:55.188Z,101298.47
2019-01-08T22:09:23.516Z,101295.98
2019-01-08T22:11:51.991Z,101298.56
2019-01-08T22:14:20.463Z,101303.22
2019-01-08T22:16:48.797Z,101306.95
2019-01-08T22:19:17.214Z,101302.11
2019-01-08T22:21:45.585Z,101298.73
2019-01-08T22:24:13.957Z,101307.47
2019-01-08T22:26:42.297Z,101301.52
2019-01-08T22:29:10.647Z,101298.42
2019-01-08T22:31:39.097Z,101302.13
2019-01-08T22:34:07.457Z,101294.09
2019-01-08T22:36:35.763Z,101301.39
2019-01-08T22:39:04.850Z,101291.41
2019-01-08T22:41:33.260Z,101290.69
2019-01-08T22:44:01.571Z,101285.83
2019-01-08T22:46:29.934Z,101291.78
2019-01-08T22:48:58.305Z,101288.06
2019-01-08T22:51:26.562Z,101299.28
2019-01-08T22:53:54.858Z,101298.59
2019-01-08T22:56:23.148Z,101303.22
2019-01-08T22:58:51.465Z,101293.02
2019-01-08T23:01:21.373Z,101290.23
2019-01-08T23:03:49.777Z,101292.73
2019-01-08T23:06:18.122Z,101298.16
2019-01-08T23:08:46.420Z,101291.02
2019-01-08T23:11:14.810Z,101297.31
2019-01-08T23:13:43.105Z,101295.67
2019-01-08T23:16:11.384Z,101282.09
2019-01-08T23:18:39.823Z,101280.25
2019-01-08T23:21:08.219Z,101265.62
2019-01-08T23:23:36.537Z,101280.15
2019-01-08T23:26:04.812Z,101271.90
2019-01-08T23:28:33.088Z,101268.70
2019-01-08T23:31:01.487Z,101264.90
2019-01-08T23:33:29.815Z,101267.17
2019-01-08T23:35:58.134Z,101267.56
2019-01-08T23:38:26.460Z,101276.77
2019-01-08T23:40:54.940Z,101274.61
2019-01-08T23:43:23.210Z,101285.93
2019-01-08T23:45:51.551Z,101277.30
2019-01-08T23:48:19.876Z,101271.40
2019-01-08T23:50:49.161Z,101281.81
2019-01-08T23:53:27.398Z,101287.58
2019-01-08T23:55:55.759Z,101273.44
2019-01-08T23:58:24.150Z,101281.37
